広島空港

2019/07/29

尾道展示飛行展開 広島空港 2019/7/26 fri

三原駅から中国バスで本郷の広島空港へ移動。

RJOA 260500Z 18006KT 120V240 9999 FEW020 SCT035 30/18 Q1008

20190726_rjoa_00ja713a

ANA679 RJTT-RJOA JA713A B777-281

20190726_rjoa_01ja713a

到着早々、いました。貨物地区前エプロンに

20190726_rjoa_02ja713a

夏空に青が映えます。

20190726_rjoa_03b5342

CCA154 RJOA-ZYTL B-5342 B737-89L

20190726_rjoa_04jg

ソラミィ広場では自衛隊のイベント開催中 西空と地本さん

20190726_rjoa_05bi

プルーインパルスはトークショーとサイン会 

RJOA 260600Z 20006KT 150V240 9999 FEW035 30/19 Q1008

20190726_rjoa_06bi265692

どこかで良く見えるところは?と、西側駐車場

20190726_rjoa_07bi265692

はい、ここがいいですね。給油支援に防府北基地からローリーが来ていた。純粋な民間空港展開は、先の奄美空港に次いで2回目。今後も期待いたします。

20190726_rjoa_08ja11mp

警察へりも見たいブルーインパルス わざわざ周回して着陸

20190726_rjoa_09ja11mp

JA11MP EC155B1 広島県警察 警視庁から転属したのかな

20190726_rjoa_10ja713a

RW10デパーチャーリクエスト

20190726_rjoa_11ja713a

ANA680 RJOA-RJTT JA713A B777-281

20190726_rjoa_12ja322j

JAL260 RJOA-RJTT JA322J B737-846

20190726_rjoa_13ja322j

後続のJAL便はRW28

20190726_rjoa_14ja11mp

JA11MP 先ほどの警察へり 西へ出発 

20190726_rjoa_15ja314j

JAL263 RJTT-RJOA JA314J B737-846

RJOA 260700Z 20005KT 150V330 9999 FEW035 30/20 Q1008

20190726_rjoa_16ja112a

ANA681 RJTT-RJOA JA112A A321-211

20190726_rjoa_17ja112a

このショットは能登に似てる

20190726_rjoa_18bi

お勤めご苦労さまです。 第12飛行教育団の燃料車

20190726_rjoa_19bi

明日27日もありますよ

20190726_rjoa_20bi

この日のイベントは、こんな進行でした。翌日は本番です。

 

| | コメント (0)

2018/04/18

蔵出 黄昏 広島空港 2001/5/5 sat

岩国帰りは、広島空港から

20010505_rjoa_00ja8544

懐かしのリゾッチャ

20010505_rjoa_01ja8544

機材は関空からフェリーしていた記憶が・・

20010505_rjoa_02ja8263

広島羽田はトリプルトラック

20010505_rjoa_03ja8544

JAZ096 RJOA-PHNL JA8544 DC10-40I

20010505_rjoa_04ja8263

JAS296 RJOA-RJTT JA8263 A300B4-2C

20010505_rjoa_05a320

ANA284 RJOA-RJSS JAxxxx A320-

20010505_rjoa_06ja701a

ANA684 RJOA-RJTT JA701A B777-281

20010505_rjoa_07a300

小生の搭乗機がやって来ましたが、記録が見つからない・・

20010505_rjoa_08hge

本郷VOR/DME(HGK) 空港用でしたが、現在は航空路も兼用

| | コメント (0) | トラックバック (0)

2017/03/18

朝から 広島空港 2017/3/8 wed

フライトシミュレータに乗って広島空港・・・ そんな訳ないか、無理な着陸はいたしません。

20170308_rjoa_00rjoa

空ピル東側に健在でした。

20170308_rjoa_01rjoa

早速、送迎デッキへ・・ まだ有料なのかよ

20170308_rjoa_02rjoa

聳え立つフェンス、申し訳程度のカメラ穴

20170308_rjoa_03ja08an

ADO115 RJOA-RJCC JA08AN B737-781

RJOA 090000Z 26007KT 230V300 9999 FEW015 04/M01 Q1011

20170308_rjoa_04b18653

ここは国際線も朝が早い

20170308_rjoa_05b18653

CAL113 RJOA-RCTP B-18653 B737-8Q8

20170308_rjoa_06hge

本郷VOR/DME(HGE)にも雪が残っている

20170308_rjoa_07ja356j

これが東京2本目 すっかり、みんな小さくなっちゃいました。

20170308_rjoa_08ja356j

JAL254 RJOA-RJTT JA355J B737-846

20170308_rjoa_09b6431

エンジンスタートもボワッと

20170308_rjoa_10b6431

CSE294 RJOA-ZSPD B-6431 A319-115

20170308_rjoa_11ja01gr

小生の乗ってきた機体も、すかさず折り返し

20170308_rjoa_12ja113a

青組み321とプッシュバック合戦

20170308_rjoa_13ja01gr

僅差で、後釜に

20170308_rjoa_14ja113a

20170308_rjoa_15ja113a

ANA674 RJOA-RJTT JA113A A321-211

20170308_rjoa_16ja01gr

リフト位置ハヤ

20170308_rjoa_17ja01gr

SOJ622 RJOA-RJAA JA01GR B737-81D

20170308_rjoa_18ja09rj

20170308_rjoa_19ja09rj

IBX37 RJSS-RJOA JA09RJ CRJ-702ER

20170308_rjoa_20fvc

消防隊は朝の点検かな、豪快に放水。

20170308_rjoa_21rjoa

さて、外回りを確認に

20170308_rjoa_22twr

耐震補強された空港事務所ビル

RJOA 090100Z 27011KT 9999 FEW015 SCT025 06/M02 Q1011

20170308_rjoa_23m6833

M6833 TC-90 King Air K22

徳島からキングさんが到着

20170308_rjoa_24hinomaru

税関の旗が一番立派

20170308_rjoa_25m6833

IFRで徳島へお帰りの模様

20170308_rjoa_26moon

広島空港は、このへんで切り上げて・・ 少しは観光でも、するかー?

ここは、○○編へ

さて、夕刻までに広島空港へ戻ってきました。

RJOA 080900Z 28005KT 9999 FEW020 SCT050 02/M04 Q1010

20170308_rjoa_30ja114a

ANA683 RJTT-RJOA JA114A A321-211

20170308_rjoa_31ja343j

JAL265 RJTT-RJOA JA343J B737-846

RJOA 081000Z 29004KT 9999 FEW020 00/M05 Q1010

20170308_rjoa_32rjoa

待合室の一番西側の改札から

20170308_rjoa_33soj624

ブルー系の室内照明

RJAA 081130Z 22003KT 9999 FEW030 03/M01 Q1005 NOSIG RMK 1CU030 A2970

20170308_rjoa_34kanagawa

不覚にも離陸したら爆睡、気がついたら・・・ 相模湾かぁ

20170308_rjoa_35tokyobay

左下が三浦半島、東京湾が綺麗に

20170308_rjoa_36rjaa

成田が見えて来ました

20170308_rjoa_37rjaa

沿岸を北上して、RW16Lの模様です。

20170308_rjoa_38rjaa

RW16Lファイナル まるで、FSで見たような景色でした。

RJAA 081200Z 22004KT 9999 FEW030 01/M01 Q1006 NOSIG RMK 1CU030 A2971

20170308_rjoa_39rjaa

ランディングして、整備地区2タミ前方の沖止めに。慌しい広島日帰り旅行でした。

| | コメント (0) | トラックバック (0)

2017/03/16

空旅 SJO621成田-広島 2017/3/7 tue

さくらの山の立看に誘われて、本日搭乗は、初春秋航空日本。国内LCCで唯一B3運用です。

RJAA 072100Z 00000KT 5000 BR FEW030 M02/M03 Q1005 NOSIG RMK 1CU030 A2970

20170308_sjo621_00rjaa

3タミ出発の最初は春秋が続くのね・・

20170308_sjo621_01rjaa

ここら編は、朝の国際線関係

20170308_sjo621_02bhnr

6時を廻って、おはよう到着便のラッシュ

20170308_sjo621_03rjaa

朝日がオレンジ

20170308_sjo621_04rjaa

この日の朝は、晴天の放射冷却でマイナスの気温。機体は凍り付いていて、デアイシング実施中。

20170308_sjo621_05rjaa

先程の機体へバスで向かいます。緑、黄、橙と並んでいました。

20170308_sjo621_06ja01gr

初搭乗に一番搭乗・・・

20170308_sjo621_07rjaa

うぐいす色で統一・・と思ったが、CMは朱色でした

RJAA 072200Z 22002KT 9999 FEW030 M01/M01 Q1006 BECMG 30005KT

20170308_sjo621_08rjaa

ひゃー、陽があたっていなかった右側は、窓が凍っています。

20170308_sjo621_09rjaa

でも、滑走路に到着するまでに流れました。RW34Rから離陸。

20170308_sjo621_10rjaa

茶色の敷地内

20170308_sjo621_11tone

利根川には、河雲がかかっています

20170308_sjo621_12rjaa

ライトターンでリバース。成田空港がよく拝めました。

20170308_sjo621_13

西行きは、ドンドン上昇していきます

20170308_sjo621_14ryugasaki

龍ヶ崎飛行場

20170308_sjo621_15ootone

大利根飛行場

20170308_sjo621_16rjtl

下総飛行場は、直上通過

20170308_sjo621_17tokorozawa

米空軍所沢通信施設(旧陸軍所沢飛行場)

20170308_sjo621_18rjtj

左上に見えるは、入間飛行場

20170308_sjo621_19rjtj

ちょい南を通過で、綺麗に眺められました

20170308_sjo621_20rjta

横田飛行場も直上通過。よって富士山は左側です。 

20170308_sjo621_21rjaf

遠くに松本空港を望むことができました。合掌。

RJOA 072300Z 30004KT 240V020 9999 FEW015 01/M02 Q1011

20170308_sjo621_22

長野から西は、これといった目標物も無く、まもなく広島空港

20170308_sjo621_23rjoa

広島RW28ファイナル。この編、山が迫っているので、非常にスリルがある。

20170308_sjo621_24rjoa

はーい、ランディング

20170308_sjo621_25rjoa

誘導路へ出て

20170308_sjo621_26rjoa

まだ朝一の出発機が並んでいます。

20170308_sjo621_27ja01gr

SOJ621 RJAA-RJOA JA01GR B737-81D

さて、これからドーショウ

| | コメント (0) | トラックバック (0)

その他のカテゴリー

BI Boading record aircraft Boading record ship FlightTracking lighthouse NAVAIDS RJNT LOG SKY MASSAGE US NAVY USMC うみ おか そら てつ アクシデント エアロック チーム室屋 三沢飛行場 上五島空港 下地島空港 下総飛行場 与那国空港 中標津空港 中部国際空港 久米島空港 五島福江空港 仙台空港 伊江島空港 但馬空港 佐賀空港 入間飛行場 八尾空港 八戸飛行場 出雲空港 函館空港 利尻空港 北九州空港 十勝飛行場 千歳飛行場 博物館 厚木飛行場 名古屋飛行場 喜界空港 嘉手納飛行場 場外 壱岐空港 大分空港 大湊飛行場 大阪国際空港 大館能代空港 天草空港 奄美空港 奥尻空港 宇部山口空港 宇都宮飛行場 宮古空港 宮崎空港 富山空港 小松島飛行場 小松飛行場 屋久島空港 山形空港 岐阜飛行場 岡山空港 岩国飛行場 帯広空港 広島空港 庄内空港 徳之島空港 徳島飛行場 成田国際空港 新潟空港 新田原飛行場 旭川空港 旭川飛行場 明野飛行場 普天間飛行場 木更津飛行場 札幌飛行場 東京国際空港 松山空港 松島飛行場 松本空港 横田飛行場 沖永良部空港 波照間空港 浜松飛行場 海上保安庁 海上自衛隊 海外 熊本空港 百里飛行場 相馬原飛行場 石垣空港 石見空港 礼文空港 神戸空港 福井空港 福岡空港 福島空港 秋田空港 種子島空港 空撮 立川飛行場 築城飛行場 美保飛行場 能登空港 舞鶴飛行場 航空自衛隊 芦屋飛行場 花巻空港 調布飛行場 警務消防 那覇空港 釧路空港 長崎空港 関西国際空港 陸上自衛隊 隠岐空港 霞ヶ浦飛行場 霞目飛行場 青森空港 静岡空港 静浜飛行場 飛行場跡 飛行船 鹿児島空港 鹿屋飛行場